Time;durP1;ratioP1;P1;durP2;ratioP2;P2;SDS_P1;SDS_P2;PMS_P1;PMS_P2;Temp;Humidity;BMP_temperature;BMP_pressure;BME280_temperature;BME280_humidity;BME280_pressure;Samples;Min_cycle;Max_cycle;Signal;HPM_P1;HPM_P2
2022/08/15 00:01:01;;;;;;;;;;;;;;;22.80;66.47;99512.72;124283;1101;103337;-78
2022/08/15 00:03:32;;;;;;;;;;;;;;;22.77;67.38;99516.34;124413;1102;102317;-80
2022/08/15 00:06:04;;;;;;;;;;;;;;;22.73;66.85;99505.79;124388;1102;104239;-79
2022/08/15 00:08:35;;;;;;;;;;;;;;;22.71;67.04;99513.86;124354;1101;102794;-79
2022/08/15 00:11:09;;;;;;;;;;;;;;;22.69;67.18;99517.48;124356;1101;104284;-78
2022/08/15 00:13:40;;;;;;;;;;;;;;;22.65;67.23;99508.69;124276;1102;104189;-79
2022/08/15 00:16:12;;;;;;;;;;;;;;;22.65;67.53;99510.50;124360;1102;102248;-78
2022/08/15 00:18:42;;;;;;;;;;;;;;;22.61;67.02;99512.40;124276;1102;104696;-78
2022/08/15 00:21:12;;;;;;;;;;;;;;;22.58;67.54;99515.16;124354;1100;104160;-78
2022/08/15 00:23:41;;;;;;;;;;;;;;;22.53;67.42;99503.70;124348;1102;104189;-78
2022/08/15 00:26:13;;;;;;;;;;;;;;;22.48;67.26;99505.64;124341;1102;104335;-78
2022/08/15 00:28:43;;;;;;;;;;;;;;;22.41;68.33;99500.48;124412;1102;104271;-78
2022/08/15 00:31:13;;;;;;;;;;;;;;;22.38;68.78;99507.72;124335;1099;104166;-78
2022/08/15 00:33:42;;;;;;;;;;;;;;;22.32;68.27;99499.88;124311;1101;104242;-79
2022/08/15 00:36:14;;;;;;;;;;;;;;;22.30;68.82;99507.00;124354;1101;104268;-78
2022/08/15 00:38:43;;;;;;;;;;;;;;;22.25;68.71;99505.36;124312;1102;102794;-78
2022/08/15 00:44:19;;;;;;;;;;;;;;;22.23;69.67;99499.16;124166;1105;104156;-78
2022/08/15 00:46:51;;;;;;;;;;;;;;;22.22;71.10;99494.75;124152;1105;104217;-78
2022/08/15 00:49:21;;;;;;;;;;;;;;;22.22;70.33;99499.20;124166;1106;104237;-78
2022/08/15 00:51:53;;;;;;;;;;;;;;;22.19;70.25;99497.52;124182;1105;102822;-79
2022/08/15 00:54:25;;;;;;;;;;;;;;;22.20;70.00;99499.24;124189;1105;102379;-78
2022/08/15 00:56:57;;;;;;;;;;;;;;;22.18;70.44;99497.55;124223;1105;104207;-79
2022/08/15 00:59:28;;;;;;;;;;;;;;;22.17;71.40;99501.13;124147;1105;102810;-79
2022/08/15 01:01:59;;;;;;;;;;;;;;;22.15;70.82;99502.98;124130;1102;102971;-79
2022/08/15 01:04:29;;;;;;;;;;;;;;;22.15;70.73;99501.18;124109;1102;104648;-78
2022/08/15 01:06:59;;;;;;;;;;;;;;;22.15;70.77;99501.18;124124;1105;104175;-78
2022/08/15 01:09:29;;;;;;;;;;;;;;;22.12;71.22;99498.59;124162;1105;104176;-78
2022/08/15 01:12:03;;;;;;;;;;;;;;;22.12;71.15;99503.07;124139;1103;102332;-77
2022/08/15 01:14:34;;;;;;;;;;;;;;;22.10;72.66;99508.45;124220;1105;104268;-78
2022/08/15 01:17:04;;;;;;;;;;;;;;;22.11;71.35;99502.20;124302;1102;102458;-78
2022/08/15 01:19:35;;;;;;;;;;;;;;;22.13;71.97;99500.36;124361;1102;104198;-78
2022/08/15 01:22:14;;;;;;;;;;;;;;;22.14;72.00;99504.76;124270;1102;104862;-78
2022/08/15 01:24:52;;;;;;;;;;;;;;;22.14;71.95;99501.22;124339;1102;104214;-79
2022/08/15 01:27:23;;;;;;;;;;;;;;;22.15;71.08;99503.84;124357;1102;102842;-78
2022/08/15 01:29:54;;;;;;;;;;;;;;;22.15;71.94;99497.64;124367;1102;104512;-78
2022/08/15 01:32:25;;;;;;;;;;;;;;;22.16;71.74;99502.94;124365;1102;104265;-78
2022/08/15 01:34:54;;;;;;;;;;;;;;;22.15;72.00;99502.98;124304;1102;105684;-78
2022/08/15 01:37:24;;;;;;;;;;;;;;;22.15;72.21;99497.64;124234;1102;104620;-79
2022/08/15 01:39:58;;;;;;;;;;;;;;;22.14;72.59;99496.74;124206;1104;103024;-78
2022/08/15 01:42:34;;;;;;;;;;;;;;;22.13;71.98;99500.36;124104;1102;104316;-78
2022/08/15 01:45:07;;;;;;;;;;;;;;;22.12;72.16;99503.07;124180;1102;104464;-78
2022/08/15 01:47:42;;;;;;;;;;;;;;;22.07;72.70;99498.72;124176;1102;104179;-78
2022/08/15 01:50:15;;;;;;;;;;;;;;;22.07;72.06;99504.06;124176;1102;104724;-78
2022/08/15 01:52:48;;;;;;;;;;;;;;;22.03;73.28;99501.52;124134;1102;104280;-78
2022/08/15 01:55:18;;;;;;;;;;;;;;;22.00;73.30;99496.25;124159;1102;104064;-79
2022/08/15 01:57:48;;;;;;;;;;;;;;;21.97;73.17;99493.66;124117;1105;102842;-78
2022/08/15 02:00:18;;;;;;;;;;;;;;;21.94;73.50;99488.41;124159;1105;103109;-78
2022/08/15 02:02:48;;;;;;;;;;;;;;;21.90;73.09;99487.62;124180;1106;102570;-78
2022/08/15 02:05:18;;;;;;;;;;;;;;;21.86;73.65;99484.17;124174;1106;104284;-78
2022/08/15 02:07:48;;;;;;;;;;;;;;;21.84;73.69;99482.45;124160;1105;104227;-78
2022/08/15 02:10:17;;;;;;;;;;;;;;;21.82;73.98;99477.14;124203;1103;102764;-78
2022/08/15 02:12:48;;;;;;;;;;;;;;;21.79;73.83;99479.90;124165;1103;103063;-78
2022/08/15 02:15:20;;;;;;;;;;;;;;;21.78;74.43;99477.27;124129;1102;102334;-78
2022/08/15 02:17:50;;;;;;;;;;;;;;;21.75;73.90;99469.34;124181;1102;104355;-78
2022/08/15 02:20:20;;;;;;;;;;;;;;;21.73;74.08;99464.91;124835;1102;104246;-80
2022/08/15 02:22:50;;;;;;;;;;;;;;;21.70;74.60;99475.67;124890;1102;104178;-78
2022/08/15 02:25:20;;;;;;;;;;;;;;;21.68;75.10;99473.97;124936;1102;104272;-78
2022/08/15 02:27:50;;;;;;;;;;;;;;;21.66;74.39;99476.69;124350;1102;104360;-78
2022/08/15 02:30:21;;;;;;;;;;;;;;;21.65;74.91;99476.72;125016;1102;104267;-79
2022/08/15 02:32:50;;;;;;;;;;;;;;;21.63;74.17;99475.86;124316;1102;104159;-78
2022/08/15 02:35:20;;;;;;;;;;;;;;;21.60;73.85;99474.17;124338;1102;104172;-78
2022/08/15 02:37:50;;;;;;;;;;;;;;;21.56;75.05;99471.62;124329;1102;104294;-78
2022/08/15 02:40:20;;;;;;;;;;;;;;;21.52;75.57;99471.70;124307;1102;102874;-80
2022/08/15 02:42:50;;;;;;;;;;;;;;;21.50;75.05;99478.88;124349;1102;104195;-78
2022/08/15 02:45:20;;;;;;;;;;;;;;;21.49;76.85;99486.92;124251;1100;104191;-78
2022/08/15 02:47:52;;;;;;;;;;;;;;;21.48;74.87;99477.98;124358;1102;104163;-79
2022/08/15 02:50:22;;;;;;;;;;;;;;;21.48;75.62;99479.79;124442;1102;102146;-78
2022/08/15 02:52:53;;;;;;;;;;;;;;;21.45;75.99;99478.06;124330;1102;104377;-79
2022/08/15 02:55:23;;;;;;;;;;;;;;;21.45;75.28;99483.40;124305;1102;102987;-78
2022/08/15 02:57:54;;;;;;;;;;;;;;;21.45;75.80;99479.87;124335;1102;104183;-78
2022/08/15 03:00:24;;;;;;;;;;;;;;;21.43;76.19;99481.70;124286;1102;104347;-79
2022/08/15 03:02:56;;;;;;;;;;;;;;;21.41;76.62;99473.73;124322;1102;104351;-78
2022/08/15 03:05:29;;;;;;;;;;;;;;;21.39;76.12;99475.55;124360;1102;104319;-78
2022/08/15 03:07:59;;;;;;;;;;;;;;;21.37;76.25;99485.39;124349;1101;104297;-78
2022/08/15 03:10:29;;;;;;;;;;;;;;;21.37;75.79;99483.59;124325;1102;102024;-79
2022/08/15 03:13:01;;;;;;;;;;;;;;;21.40;74.87;99487.12;124387;1102;104160;-79
2022/08/15 03:15:38;;;;;;;;;;;;;;;21.37;75.24;99496.94;124284;1102;104086;-79
2022/08/15 03:18:08;;;;;;;;;;;;;;;21.38;76.63;99500.50;124362;1102;101937;-78
2022/08/15 03:20:39;;;;;;;;;;;;;;;21.40;75.43;99498.66;124329;1102;102964;-79
2022/08/15 03:23:09;;;;;;;;;;;;;;;21.38;75.49;99503.17;124311;1102;104057;-78
2022/08/15 03:25:44;;;;;;;;;;;;;;;21.39;77.21;99510.23;124358;1102;103356;-78
2022/08/15 03:28:14;;;;;;;;;;;;;;;21.39;76.19;99512.91;124273;1102;104553;-78
2022/08/15 03:30:43;;;;;;;;;;;;;;;21.40;75.99;99511.14;124385;1102;104262;-78
2022/08/15 03:33:13;;;;;;;;;;;;;;;21.39;76.60;99520.91;124348;1102;104402;-78
2022/08/15 03:35:44;;;;;;;;;;;;;;;21.39;76.64;99515.58;124429;1099;104159;-78
2022/08/15 03:38:15;;;;;;;;;;;;;;;21.40;76.94;99520.00;124369;1099;104157;-78
2022/08/15 03:40:46;;;;;;;;;;;;;;;21.42;76.20;99531.52;124449;1099;104240;-78
2022/08/15 03:43:18;;;;;;;;;;;;;;;21.44;76.71;99524.37;124495;1098;104175;-78
2022/08/15 03:45:50;;;;;;;;;;;;;;;21.45;76.61;99526.09;124405;1099;119864;-78
2022/08/15 03:48:24;;;;;;;;;;;;;;;21.45;76.39;99523.43;124419;1099;104156;-78
2022/08/15 03:50:55;;;;;;;;;;;;;;;21.46;76.81;99519.86;124347;1102;104180;-78
2022/08/15 03:53:25;;;;;;;;;;;;;;;21.45;76.54;99512.76;124356;1103;102778;-79
2022/08/15 03:56:00;;;;;;;;;;;;;;;21.49;77.14;99494.93;124397;1102;104243;-78
2022/08/15 03:58:31;;;;;;;;;;;;;;;21.49;77.67;99486.92;124394;1102;104211;-78
2022/08/15 04:01:02;;;;;;;;;;;;;;;21.51;77.39;99472.60;125063;1102;104195;-78
2022/08/15 04:03:31;;;;;;;;;;;;;;;21.58;77.86;99469.78;125183;1102;104335;-78
2022/08/15 04:06:06;;;;;;;;;;;;;;;21.61;78.01;99477.70;124315;1102;104351;-78
2022/08/15 04:08:36;;;;;;;;;;;;;;;21.61;78.06;99475.91;124360;1102;104351;-78
2022/08/15 04:11:07;;;;;;;;;;;;;;;21.61;78.32;99467.90;124359;1102;102966;-78
2022/08/15 04:13:39;;;;;;;;;;;;;;;21.63;77.79;99470.53;124351;1102;102180;-78
2022/08/15 04:16:09;;;;;;;;;;;;;;;21.64;79.10;99458.95;124386;1102;104274;-79
2022/08/15 04:18:38;;;;;;;;;;;;;;;21.65;78.42;99439.35;124352;1100;104329;-79
2022/08/15 04:21:10;;;;;;;;;;;;;;;21.66;78.58;99441.08;124548;1102;103040;-79
2022/08/15 04:23:41;;;;;;;;;;;;;;;21.70;77.88;99456.98;125613;1102;104073;-79
2022/08/15 04:26:11;;;;;;;;;;;;;;;21.73;78.31;99450.69;124729;1101;102775;-79
2022/08/15 04:28:41;;;;;;;;;;;;;;;21.75;78.11;99447.98;124513;1102;104217;-79
2022/08/15 04:31:14;;;;;;;;;;;;;;;21.83;78.45;99457.55;125179;1102;104126;-79
2022/08/15 04:33:45;;;;;;;;;;;;;;;21.88;78.32;99452.95;125202;1102;104341;-79
2022/08/15 04:36:17;;;;;;;;;;;;;;;21.97;78.44;99448.27;125177;1102;101915;-78
2022/08/15 04:38:49;;;;;;;;;;;;;;;22.03;77.59;99450.77;124376;1102;104160;-79
2022/08/15 04:41:20;;;;;;;;;;;;;;;22.09;77.71;99450.59;125130;1102;104172;-79
2022/08/15 04:43:52;;;;;;;;;;;;;;;22.17;78.15;99451.23;125204;1102;104179;-78
2022/08/15 04:46:22;;;;;;;;;;;;;;;22.21;77.78;99457.39;125185;1101;105557;-79
2022/08/15 04:48:54;;;;;;;;;;;;;;;22.29;77.75;99467.86;124446;1102;104229;-79
2022/08/15 04:51:25;;;;;;;;;;;;;;;22.35;77.67;99457.03;125065;1102;101889;-79
2022/08/15 04:53:56;;;;;;;;;;;;;;;22.42;77.27;99456.80;124892;1102;104412;-78
2022/08/15 04:56:29;;;;;;;;;;;;;;;22.49;77.29;99454.81;124903;1105;102833;-79
2022/08/15 04:59:00;;;;;;;;;;;;;;;22.56;77.36;99453.72;124913;1102;102762;-79
2022/08/15 05:01:44;;;;;;;;;;;;;;;22.65;76.88;99451.69;124424;1102;104262;-80
2022/08/15 05:04:20;;;;;;;;;;;;;;;22.74;77.07;99451.40;125048;1102;102428;-79
2022/08/15 05:06:51;;;;;;;;;;;;;;;22.78;76.77;99450.36;125083;1102;102060;-79
2022/08/15 05:09:21;;;;;;;;;;;;;;;22.83;76.95;99448.44;124327;1102;104303;-77
2022/08/15 05:11:51;;;;;;;;;;;;;;;22.88;76.73;99445.63;124383;1101;104448;-78
2022/08/15 05:14:21;;;;;;;;;;;;;;;22.97;76.89;99439.98;124306;1102;104411;-78
2022/08/15 05:16:53;;;;;;;;;;;;;;;23.06;76.99;99445.03;124413;1102;103566;-78
2022/08/15 05:19:29;;;;;;;;;;;;;;;23.09;76.30;99450.32;124359;1102;104405;-78
2022/08/15 05:21:59;;;;;;;;;;;;;;;23.13;76.62;99446.59;124294;1102;104427;-78
2022/08/15 05:24:29;;;;;;;;;;;;;;;23.19;76.40;99445.53;124364;1102;104204;-78
2022/08/15 05:27:01;;;;;;;;;;;;;;;23.28;76.15;99441.66;124522;1099;102352;-78
2022/08/15 05:29:31;;;;;;;;;;;;;;;23.36;76.29;99452.11;124763;1098;104329;-78
2022/08/15 05:32:02;;;;;;;;;;;;;;;23.42;75.78;99449.22;125446;1099;104300;-78
2022/08/15 05:34:33;;;;;;;;;;;;;;;23.47;75.74;99442.80;125838;1099;104069;-77
2022/08/15 05:37:03;;;;;;;;;;;;;;;23.54;75.25;99435.42;124994;1098;102832;-79
2022/08/15 05:39:34;;;;;;;;;;;;;;;23.58;74.55;99436.21;124486;1099;104354;-78
2022/08/15 05:42:08;;;;;;;;;;;;;;;23.60;74.56;99442.38;124428;1100;104044;-78
2022/08/15 05:44:48;;;;;;;;;;;;;;;23.63;74.83;99435.10;125186;1099;102874;-77
2022/08/15 05:47:27;;;;;;;;;;;;;;;23.69;74.58;99442.06;125728;1099;102725;-79
2022/08/15 05:50:03;;;;;;;;;;;;;;;23.77;74.44;99441.79;125250;1099;102810;-79
2022/08/15 05:52:43;;;;;;;;;;;;;;;23.84;74.03;99440.66;125106;1102;104207;-79
2022/08/15 05:55:21;;;;;;;;;;;;;;;23.92;74.10;99441.28;124628;1102;104188;-78
2022/08/15 05:58:03;;;;;;;;;;;;;;;24.00;73.66;99443.68;125152;1102;104408;-78
2022/08/15 06:00:40;;;;;;;;;;;;;;;24.06;73.35;99448.81;124887;1102;102905;-78
2022/08/15 06:03:23;;;;;;;;;;;;;;;24.14;72.74;99457.44;125567;1102;102470;-77
2022/08/15 06:05:56;;;;;;;;;;;;;;;24.16;71.26;99433.27;124877;1102;104269;-77
2022/08/15 06:08:29;;;;;;;;;;;;;;;24.25;71.42;99440.06;125194;1102;104242;-79
2022/08/15 06:11:04;;;;;;;;;;;;;;;24.29;71.55;99444.39;125091;1102;102743;-79
2022/08/15 06:13:51;;;;;;;;;;;;;;;24.37;71.65;99444.97;124984;1105;101908;-78
2022/08/15 06:16:37;;;;;;;;;;;;;;;24.44;70.83;99453.67;125323;1102;102319;-79
2022/08/15 06:19:25;;;;;;;;;;;;;;;24.47;70.74;99450.88;125630;1105;119493;-79
2022/08/15 06:22:09;;;;;;;;;;;;;;;24.53;70.08;99454.19;124906;1102;102412;-78
2022/08/15 06:25:03;;;;;;;;;;;;;;;24.58;69.60;99454.04;125067;1102;104292;-81
2022/08/15 06:28:02;;;;;;;;;;;;;;;24.65;69.41;99444.84;125300;1102;104262;-79
2022/08/15 06:30:41;;;;;;;;;;;;;;;24.80;69.42;99440.66;125273;1102;104303;-79
2022/08/15 06:33:25;;;;;;;;;;;;;;;24.90;69.55;99441.16;125073;1102;104208;-79
2022/08/15 06:36:05;;;;;;;;;;;;;;;24.98;68.77;99443.53;124987;1102;104063;-79
2022/08/15 06:38:44;;;;;;;;;;;;;;;25.00;67.42;99441.67;125252;1099;102775;-79
2022/08/15 06:41:26;;;;;;;;;;;;;;;25.07;68.58;99445.84;125131;1101;104257;-78
2022/08/15 06:44:08;;;;;;;;;;;;;;;25.11;67.95;99434.91;125243;1099;104227;-80
2022/08/15 06:46:55;;;;;;;;;;;;;;;25.21;66.87;99431.85;125212;1099;102675;-78
2022/08/15 06:49:26;;;;;;;;;;;;;;;25.32;66.54;99443.04;125092;1102;104168;-79
2022/08/15 06:52:00;;;;;;;;;;;;;;;25.35;64.77;99437.54;125711;1102;101794;-79
2022/08/15 06:54:38;;;;;;;;;;;;;;;25.46;65.09;99434.41;125173;1102;102435;-79
2022/08/15 06:57:18;;;;;;;;;;;;;;;25.53;65.10;99435.03;125605;1102;102770;-78
2022/08/15 06:59:55;;;;;;;;;;;;;;;25.63;63.48;99433.67;125119;1102;102424;-79
2022/08/15 07:02:38;;;;;;;;;;;;;;;25.70;63.21;99432.48;125394;1102;102214;-79
2022/08/15 07:05:22;;;;;;;;;;;;;;;25.80;64.59;99433.84;125065;1102;102757;-78
2022/08/15 07:08:06;;;;;;;;;;;;;;;25.87;64.71;99444.28;124905;1103;104223;-78
2022/08/15 07:10:43;;;;;;;;;;;;;;;25.99;63.25;99441.08;124934;1102;102589;-79
2022/08/15 07:13:18;;;;;;;;;;;;;;;26.03;63.03;99444.53;124960;1102;102916;-77
2022/08/15 07:15:55;;;;;;;;;;;;;;;26.11;64.00;99445.91;124785;1102;102842;-78
2022/08/15 07:18:41;;;;;;;;;;;;;;;26.23;62.40;99451.70;124910;1105;104173;-79
2022/08/15 07:21:16;;;;;;;;;;;;;;;26.32;63.26;99440.52;124863;1102;102425;-78
2022/08/15 07:24:06;;;;;;;;;;;;;;;26.42;62.32;99449.89;124964;1102;102374;-78
2022/08/15 07:33:45;;;;;;;;;;;;;;;26.64;60.89;99443.50;125237;1102;104163;-79
2022/08/15 07:36:33;;;;;;;;;;;;;;;26.70;61.37;99448.62;126784;1098;103262;-79
2022/08/15 07:42:15;;;;;;;;;;;;;;;26.86;60.82;99446.92;125166;1102;104287;-80
2022/08/15 07:45:00;;;;;;;;;;;;;;;26.94;60.72;99440.31;125049;1102;102298;-78
2022/08/15 07:47:33;;;;;;;;;;;;;;;27.04;59.93;99437.09;124915;1102;104169;-79
2022/08/15 07:50:24;;;;;;;;;;;;;;;27.12;59.06;99447.48;125155;1102;104268;-79
2022/08/15 07:52:58;;;;;;;;;;;;;;;27.19;59.72;99445.34;125019;1102;104158;-79
2022/08/15 07:55:33;;;;;;;;;;;;;;;27.25;57.36;99447.73;125152;1102;102266;-78
2022/08/15 07:58:07;;;;;;;;;;;;;;;27.26;55.46;99444.97;125025;1102;102093;-80
2022/08/15 08:00:43;;;;;;;;;;;;;;;27.34;57.38;99444.61;125231;1102;104216;-79
2022/08/15 08:03:17;;;;;;;;;;;;;;;27.44;57.46;99447.70;125509;1102;103191;-79
2022/08/15 08:05:52;;;;;;;;;;;;;;;27.53;57.52;99441.84;125126;1102;102291;-79
2022/08/15 08:08:32;;;;;;;;;;;;;;;27.63;57.64;99442.27;125189;1102;104162;-80
2022/08/15 08:11:09;;;;;;;;;;;;;;;27.81;57.39;99437.73;125929;1102;102236;-80
2022/08/15 08:13:48;;;;;;;;;;;;;;;27.92;56.19;99435.33;125446;1102;104284;-80
2022/08/15 08:16:28;;;;;;;;;;;;;;;27.97;56.39;99446.80;124903;1104;104173;-80
2022/08/15 08:19:06;;;;;;;;;;;;;;;28.14;56.24;99447.70;125027;1105;104220;-80
2022/08/15 08:21:45;;;;;;;;;;;;;;;28.31;54.61;99442.28;124967;1105;102797;-79
2022/08/15 08:24:27;;;;;;;;;;;;;;;28.47;55.99;99442.30;124956;1105;103649;-80
2022/08/15 08:27:01;;;;;;;;;;;;;;;28.56;53.63;99445.44;125258;1105;102246;-80
2022/08/15 08:29:54;;;;;;;;;;;;;;;28.60;53.41;99444.36;125579;1106;102258;-80
2022/08/15 08:32:55;;;;;;;;;;;;;;;28.54;53.63;99450.06;125051;1102;104239;-80
2022/08/15 08:35:35;;;;;;;;;;;;;;;28.50;54.61;99434.05;125104;1102;104335;-79
2022/08/15 08:38:13;;;;;;;;;;;;;;;28.49;53.57;99432.29;125045;1102;104198;-81
2022/08/15 08:43:56;;;;;;;;;;;;;;;28.51;54.62;99435.77;124967;1102;103611;-80
2022/08/15 08:46:48;;;;;;;;;;;;;;;28.60;53.85;99431.73;125037;1102;102316;-79
2022/08/15 08:49:36;;;;;;;;;;;;;;;28.64;53.93;99433.30;125595;1102;102817;-79
2022/08/15 08:52:14;;;;;;;;;;;;;;;28.66;53.56;99435.92;125241;1102;101799;-79
2022/08/15 08:54:54;;;;;;;;;;;;;;;28.66;52.65;99434.08;125290;1099;102754;-79
2022/08/15 08:57:32;;;;;;;;;;;;;;;28.67;53.20;99433.13;125119;1099;103666;-80
2022/08/15 09:00:06;;;;;;;;;;;;;;;28.66;53.11;99420.59;125093;1099;102955;-79
2022/08/15 09:02:38;;;;;;;;;;;;;;;28.75;52.70;99437.21;125139;1099;103277;-79
2022/08/15 09:05:14;;;;;;;;;;;;;;;28.81;52.53;99428.77;125700;1099;104229;-80
2022/08/15 09:07:59;;;;;;;;;;;;;;;28.88;50.91;99424.77;125971;1098;104226;-83
2022/08/15 09:10:45;;;;;;;;;;;;;;;28.94;51.38;99427.12;126074;1099;104297;-81
2022/08/15 09:13:33;;;;;;;;;;;;;;;28.99;52.14;99430.41;125858;1099;104227;-80
2022/08/15 09:16:09;;;;;;;;;;;;;;;28.99;49.84;99424.16;126030;1098;104073;-81
2022/08/15 09:18:48;;;;;;;;;;;;;;;29.02;50.11;99418.58;125912;1099;102509;-81
2022/08/15 09:21:21;;;;;;;;;;;;;;;29.07;50.09;99426.41;125991;1099;104223;-80
2022/08/15 09:23:54;;;;;;;;;;;;;;;29.12;51.09;99410.80;126157;1099;104169;-81
2022/08/15 09:26:35;;;;;;;;;;;;;;;29.11;49.70;99427.95;126465;1099;104288;-81
2022/08/15 09:29:19;;;;;;;;;;;;;;;29.16;50.86;99418.63;126180;1098;104169;-79
2022/08/15 09:32:00;;;;;;;;;;;;;;;29.16;50.00;99420.47;125824;1099;102752;-80
2022/08/15 09:34:39;;;;;;;;;;;;;;;29.18;50.14;99421.25;125921;1099;104162;-80
2022/08/15 09:37:17;;;;;;;;;;;;;;;29.21;49.23;99415.70;125919;1099;103602;-81
2022/08/15 09:40:07;;;;;;;;;;;;;;;29.30;50.17;99417.86;125936;1097;102238;-80
2022/08/15 09:42:55;;;;;;;;;;;;;;;29.40;50.06;99416.36;125850;1099;104312;-79
2022/08/15 09:45:36;;;;;;;;;;;;;;;29.38;47.18;99428.20;125859;1099;102224;-78
2022/08/15 09:48:21;;;;;;;;;;;;;;;29.35;49.33;99422.98;125902;1099;104208;-80
2022/08/15 09:51:05;;;;;;;;;;;;;;;29.31;48.38;99426.82;126415;1099;101994;-80
2022/08/15 09:53:45;;;;;;;;;;;;;;;29.24;48.80;99429.02;125218;1099;104256;-79
2022/08/15 09:56:22;;;;;;;;;;;;;;;29.28;48.52;99432.41;125215;1099;104162;-79
2022/08/15 09:58:58;;;;;;;;;;;;;;;29.32;47.96;99432.13;125357;1099;104326;-80
2022/08/15 10:01:31;;;;;;;;;;;;;;;29.34;47.77;99442.84;125180;1099;104298;-79
2022/08/15 10:04:08;;;;;;;;;;;;;;;29.34;47.44;99442.84;125247;1099;103627;-78
2022/08/15 10:06:51;;;;;;;;;;;;;;;29.30;46.61;99441.31;125671;1099;102308;-79
2022/08/15 10:09:33;;;;;;;;;;;;;;;29.30;47.48;99434.06;126444;1099;102049;-80
2022/08/15 10:15:33;;;;;;;;;;;;;;;29.41;48.04;99422.63;126249;1101;104232;-79
2022/08/15 10:18:08;;;;;;;;;;;;;;;29.55;47.84;99429.91;125106;1102;104159;-78
2022/08/15 10:21:13;;;;;;;;;;;;;;;29.62;47.68;99431.25;126218;1102;104547;-79
2022/08/15 10:23:54;;;;;;;;;;;;;;;29.74;47.73;99432.36;126145;1101;104293;-79
2022/08/15 10:26:39;;;;;;;;;;;;;;;29.79;46.52;99434.78;126332;1101;107650;-79
2022/08/15 10:29:24;;;;;;;;;;;;;;;29.74;46.67;99424.25;125695;1102;102220;-79
2022/08/15 10:32:03;;;;;;;;;;;;;;;29.83;47.33;99447.20;125927;1102;102095;-77
2022/08/15 10:36:38;;;;;;;15.77;8.47;;;;;;;29.68;47.28;99449.81;125826;1101;102598;-78
2022/08/15 10:39:33;;;;;;;19.07;8.77;;;;;;;29.72;46.79;99451.38;125395;1102;102858;-78
2022/08/15 10:42:37;;;;;;;22.20;8.77;;;;;;;29.80;46.72;99441.97;126247;1101;102375;-78
2022/08/15 10:45:19;;;;;;;18.10;9.25;;;;;;;29.92;46.31;99447.49;126057;1102;104168;-78
2022/08/15 10:47:58;;;;;;;;;;;;;;;29.93;46.41;99441.13;126141;1101;101787;-78
2022/08/15 10:50:54;;;;;;;20.90;8.97;;;;;;;29.94;46.13;99444.70;125058;1102;104160;-78
2022/08/15 10:54:09;;;;;;;16.45;8.15;;;;;;;29.95;46.17;99443.74;126141;1101;102134;-78
2022/08/15 10:56:59;;;;;;;17.87;8.83;;;;;;;29.94;46.18;99442.84;125123;1102;102111;-78
2022/08/15 10:59:50;;;;;;;15.30;8.70;;;;;;;29.99;46.32;99439.86;126606;1101;102995;-79
2022/08/15 11:02:44;;;;;;;16.93;9.00;;;;;;;30.09;46.05;99435.64;126035;1102;101799;-80
2022/08/15 11:05:26;;;;;;;14.80;8.47;;;;;;;30.24;46.01;99435.63;125087;1105;104223;-80
2022/08/15 11:08:17;;;;;;;19.60;9.10;;;;;;;30.30;45.82;99436.11;125089;1102;108929;-80
2022/08/15 11:10:49;;;;;;;22.05;8.95;;;;;;;30.41;45.73;99435.46;125586;1102;102316;-80
2022/08/15 11:13:57;;;;;;;17.73;9.17;;;;;;;30.44;45.51;99431.70;125229;1102;104171;-79
2022/08/15 11:16:45;;;;;;;19.00;9.20;;;;;;;30.39;44.90;99439.25;125422;1102;104466;-80
2022/08/15 11:19:28;;;;;;;17.30;9.00;;;;;;;30.41;45.32;99427.34;125116;1102;104848;-80
2022/08/15 11:22:23;;;;;;;17.87;8.93;;;;;;;30.51;45.15;99421.34;125082;1102;104237;-80
2022/08/15 11:25:29;;;;;;;15.63;9.03;;;;;;;30.56;44.54;99424.61;125208;1102;104294;-81
2022/08/15 11:28:06;;;;;;;16.10;8.75;;;;;;;30.52;44.57;99423.09;125095;1102;103000;-80
2022/08/15 11:30:46;;;;;;;18.43;8.97;;;;;;;30.61;44.37;99427.91;125144;1102;104201;-78
2022/08/15 11:33:40;;;;;;;21.20;9.73;;;;;;;30.79;44.50;99426.72;125577;1101;104255;-79
2022/08/15 11:36:41;;;;;;;16.80;8.83;;;;;;;31.00;44.13;99439.84;125220;1102;104178;-79
2022/08/15 11:39:20;;;;;;;17.10;9.45;;;;;;;31.15;44.18;99427.09;125733;1099;101957;-80
2022/08/15 11:41:56;;;;;;;17.00;9.03;;;;;;;31.23;43.61;99421.17;125605;1099;103041;-79
2022/08/15 11:44:48;;;;;;;15.83;8.87;;;;;;;31.23;43.53;99422.06;125749;1099;104226;-79
2022/08/15 11:47:36;;;;;;;16.43;9.27;;;;;;;31.13;42.76;99432.62;125343;1102;102426;-79
2022/08/15 11:50:32;;;;;;;24.27;9.27;;;;;;;31.00;42.67;99431.72;125924;1098;104153;-80
2022/08/15 11:53:28;;;;;;;17.17;8.90;;;;;;;30.88;42.83;99425.23;125332;1102;102214;-79
2022/08/15 11:56:10;;;;;;;17.30;9.03;;;;;;;30.85;42.99;99429.98;125614;1102;102332;-79
2022/08/15 11:58:58;;;;;;;17.87;8.70;;;;;;;30.81;42.89;99418.50;125200;1102;107104;-79
2022/08/15 12:01:53;;;;;;;21.53;8.70;;;;;;;30.80;42.93;99416.75;125164;1105;104413;-79
2022/08/15 12:04:49;;;;;;;16.87;8.97;;;;;;;30.78;43.00;99418.70;125053;1105;104310;-79
2022/08/15 12:11:14;;;;;;;;;;;;;;;;;;;;;
2022/08/15 12:14:08;;;;;;;17.53;8.57;;;;;;;30.80;42.61;99408.63;125099;1105;104169;-79
2022/08/15 12:17:18;;;;;;;20.97;9.17;;;;;;;30.79;42.35;99413.18;124850;1106;103853;-79
2022/08/15 12:20:38;;;;;;;14.47;7.97;;;;;;;30.82;42.09;99409.38;125471;1105;109261;-80
2022/08/15 12:23:43;;;;;;;17.47;8.17;;;;;;;30.74;41.63;99400.91;125492;1105;104253;-81
2022/08/15 12:26:34;;;;;;;13.70;8.17;;;;;;;30.72;41.93;99401.00;125891;1102;102386;-81
2022/08/15 12:29:09;;;;;;;16.40;8.87;;;;;;;30.74;41.55;99395.48;125588;1102;104454;-81
2022/08/15 12:31:48;;;;;;;18.50;8.67;;;;;;;30.70;41.20;99393.94;125626;1102;102335;-79
2022/08/15 12:34:31;;;;;;;15.77;7.63;;;;;;;30.70;41.12;99385.81;125054;1102;104297;-79
2022/08/15 12:37:14;;;;;;;17.27;8.50;;;;;;;30.72;41.15;99387.47;125091;1102;102115;-78
2022/08/15 12:39:49;;;;;;;19.93;8.57;;;;;;;30.78;41.10;99389.77;124799;1102;104300;-78
2022/08/15 12:42:27;;;;;;;18.27;8.33;;;;;;;30.80;40.59;99381.55;125038;1102;104329;-79
2022/08/15 12:45:03;;;;;;;17.43;8.60;;;;;;;30.78;40.71;99386.20;125085;1102;102699;-79
2022/08/15 12:47:35;;;;;;;15.87;8.00;;;;;;;30.82;40.66;99395.84;125066;1101;104420;-78
2022/08/15 12:50:11;;;;;;;16.73;8.30;;;;;;;30.86;40.62;99388.41;124960;1102;104342;-79
2022/08/15 12:52:47;;;;;;;17.17;8.57;;;;;;;30.92;40.63;99385.29;124878;1102;103140;-79
2022/08/15 12:55:27;;;;;;;16.73;8.80;;;;;;;30.95;40.54;99390.50;124996;1102;103077;-80
2022/08/15 12:57:58;;;;;;;18.53;8.20;;;;;;;31.01;40.95;99382.00;124827;1105;102994;-79
2022/08/15 13:00:33;;;;;;;17.80;8.97;;;;;;;30.97;40.45;99389.44;124920;1106;104193;-79
2022/08/15 13:03:12;;;;;;;20.57;9.03;;;;;;;30.96;40.16;99378.67;124977;1105;104773;-79
2022/08/15 13:05:45;;;;;;;20.63;10.07;;;;;;;31.04;40.38;99373.67;124848;1105;102382;-78
2022/08/15 13:08:19;;;;;;;17.25;8.25;;;;;;;31.15;40.43;99370.20;124841;1105;104484;-78
2022/08/15 13:10:55;;;;;;;17.90;8.73;;;;;;;31.20;40.04;99373.50;125515;1105;104434;-79
2022/08/15 13:13:29;;;;;;;18.50;9.03;;;;;;;31.22;40.04;99368.83;124936;1105;104256;-79
2022/08/15 13:16:08;;;;;;;16.30;8.80;;;;;;;31.21;39.85;99368.93;125234;1103;104699;-79
2022/08/15 13:18:44;;;;;;;18.20;8.70;;;;;;;31.25;39.97;99367.77;125146;1102;104221;-80
2022/08/15 13:24:12;;;;;;;;;;;;;;;31.21;39.10;99361.66;125234;1102;102332;-80
2022/08/15 13:26:55;;;;;;;16.70;8.53;;;;;;;31.26;39.23;99366.77;125169;1102;104648;-80
2022/08/15 13:29:27;;;;;;;17.70;8.27;;;;;;;31.28;39.52;99365.70;125609;1102;103314;-80